createdAt,value
2018-03-03T00:02:04.696Z,-1.20
2018-03-03T00:04:32.144Z,-1.10
2018-03-03T00:06:59.593Z,-1.10
2018-03-03T00:09:27.032Z,-1.20
2018-03-03T00:11:54.484Z,-1.20
2018-03-03T00:14:21.916Z,-1.10
2018-03-03T00:16:49.348Z,-1.10
2018-03-03T00:19:16.792Z,-1.20
2018-03-03T00:21:44.245Z,-1.10
2018-03-03T00:24:11.717Z,-1.20
2018-03-03T00:26:39.120Z,-1.30
2018-03-03T00:29:06.552Z,-1.40
2018-03-03T00:31:33.991Z,-1.50
2018-03-03T00:34:01.440Z,-1.60
2018-03-03T00:36:29.005Z,-1.70
2018-03-03T00:38:56.454Z,-1.80
2018-03-03T00:41:23.888Z,-1.80
2018-03-03T00:43:51.344Z,-1.80
2018-03-03T00:46:19.535Z,-2.10
2018-03-03T00:48:46.982Z,-2.10
2018-03-03T00:51:14.420Z,-2.20
2018-03-03T00:53:41.856Z,-2.30
2018-03-03T00:56:09.344Z,-2.30
2018-03-03T00:58:36.788Z,-2.30
2018-03-03T01:01:04.227Z,-2.30
2018-03-03T01:03:31.682Z,-2.40
2018-03-03T01:05:59.124Z,-2.50
2018-03-03T01:08:26.584Z,-2.50
2018-03-03T01:10:54.804Z,-2.50
2018-03-03T01:13:22.235Z,-2.50
2018-03-03T01:15:49.696Z,-2.60
2018-03-03T01:18:17.123Z,-2.50
2018-03-03T01:20:44.553Z,-2.50
2018-03-03T01:23:11.983Z,-2.50
2018-03-03T01:25:39.444Z,-2.50
2018-03-03T01:28:06.876Z,-2.50
2018-03-03T01:30:34.884Z,-2.60
2018-03-03T01:33:03.084Z,-2.70
2018-03-03T01:35:30.544Z,-2.70
2018-03-03T01:37:57.994Z,-2.80
2018-03-03T01:40:25.424Z,-2.90
2018-03-03T01:42:52.855Z,-2.90
2018-03-03T01:45:20.295Z,-2.90
2018-03-03T01:47:47.741Z,-2.80
2018-03-03T01:50:15.198Z,-2.90
2018-03-03T01:52:42.637Z,-2.90
2018-03-03T01:55:10.064Z,-2.90
2018-03-03T01:57:37.504Z,-2.90
2018-03-03T02:00:04.953Z,-2.90
2018-03-03T02:02:32.384Z,-2.90
2018-03-03T02:04:59.828Z,-3.00
2018-03-03T02:07:27.260Z,-2.90
2018-03-03T02:09:54.703Z,-3.00
2018-03-03T02:12:22.182Z,-3.00
2018-03-03T02:14:49.624Z,-2.90
2018-03-03T02:17:17.063Z,-3.00
2018-03-03T02:19:44.516Z,-3.10
2018-03-03T02:22:11.944Z,-3.20
2018-03-03T02:24:39.389Z,-3.20
2018-03-03T02:27:06.829Z,-3.20
2018-03-03T02:29:34.296Z,-3.30
2018-03-03T02:32:01.721Z,-3.40
2018-03-03T02:34:29.172Z,-3.40
2018-03-03T02:36:56.631Z,-3.50
2018-03-03T02:39:24.882Z,-3.40
2018-03-03T02:41:52.310Z,-3.40
2018-03-03T02:44:19.752Z,-3.40
2018-03-03T02:46:47.200Z,-3.40
2018-03-03T02:49:14.653Z,-3.50
2018-03-03T02:51:42.868Z,-3.50
2018-03-03T02:54:10.321Z,-3.60
2018-03-03T02:56:37.789Z,-3.50
2018-03-03T02:59:05.224Z,-3.50
2018-03-03T03:01:32.680Z,-3.50
2018-03-03T03:04:00.881Z,-3.60
2018-03-03T03:06:28.344Z,-3.60
2018-03-03T03:08:55.800Z,-3.50
2018-03-03T03:11:23.249Z,-3.50
2018-03-03T03:13:52.208Z,-3.50
2018-03-03T03:16:19.656Z,-3.50
2018-03-03T03:18:47.092Z,-3.40
2018-03-03T03:21:14.536Z,-3.50
2018-03-03T03:23:41.968Z,-3.50
2018-03-03T03:26:09.408Z,-3.50
2018-03-03T03:28:36.861Z,-3.50
2018-03-03T03:31:04.285Z,-3.50
2018-03-03T03:33:31.730Z,-3.50
2018-03-03T03:35:59.176Z,-3.50
2018-03-03T03:38:26.630Z,-3.60
2018-03-03T03:40:54.068Z,-3.70
2018-03-03T03:43:21.524Z,-3.70
2018-03-03T03:45:48.972Z,-3.60
2018-03-03T03:48:16.413Z,-3.60
2018-03-03T03:50:43.835Z,-3.50
2018-03-03T03:53:11.279Z,-3.40
2018-03-03T03:55:38.719Z,-3.40
2018-03-03T03:58:06.178Z,-3.40
2018-03-03T04:00:35.988Z,-3.60
2018-03-03T04:03:04.201Z,-3.60
2018-03-03T04:05:31.644Z,-3.60
2018-03-03T04:07:59.108Z,-3.60
2018-03-03T04:10:26.545Z,-3.80
2018-03-03T04:12:53.995Z,-3.80
2018-03-03T04:15:21.425Z,-3.80
2018-03-03T04:17:48.861Z,-3.90
2018-03-03T04:20:16.289Z,-4.00
2018-03-03T04:22:43.750Z,-4.10
2018-03-03T04:25:11.203Z,-4.20
2018-03-03T04:27:38.633Z,-4.20
2018-03-03T04:30:06.068Z,-4.20
2018-03-03T04:32:33.505Z,-4.30
2018-03-03T04:35:00.956Z,-4.20
2018-03-03T04:37:28.412Z,-4.20
2018-03-03T04:39:55.835Z,-4.20
2018-03-03T04:42:23.264Z,-4.20
2018-03-03T04:44:50.708Z,-4.20
2018-03-03T04:47:18.157Z,-4.20
2018-03-03T04:49:45.596Z,-4.20
2018-03-03T04:52:13.020Z,-4.30
2018-03-03T04:54:40.473Z,-4.30
2018-03-03T04:57:07.911Z,-4.40
2018-03-03T04:59:40.915Z,-4.40
2018-03-03T05:02:11.323Z,-4.40
2018-03-03T05:04:38.779Z,-4.40
2018-03-03T05:10:30.576Z,-4.50
2018-03-03T05:13:03.724Z,-4.50
2018-03-03T05:18:43.320Z,-4.60
2018-03-03T05:21:16.533Z,-4.60
2018-03-03T05:26:48.682Z,-4.50
2018-03-03T05:29:21.736Z,-4.50
2018-03-03T05:35:10.889Z,-4.50
2018-03-03T05:37:56.012Z,-4.50
2018-03-03T05:40:29.984Z,-4.70
2018-03-03T05:46:10.696Z,-4.70
2018-03-03T05:48:41.907Z,-4.60
2018-03-03T05:51:09.348Z,-4.60
2018-03-03T05:53:42.421Z,-4.50
2018-03-03T05:56:11.444Z,-4.50
2018-03-03T06:01:50.148Z,-4.40
2018-03-03T06:04:18.000Z,-4.40
2018-03-03T06:06:51.964Z,-4.50
2018-03-03T06:09:20.972Z,-4.50
2018-03-03T06:11:48.420Z,-4.50
2018-03-03T06:14:15.873Z,-4.50
2018-03-03T06:16:43.324Z,-4.50
2018-03-03T06:19:10.739Z,-4.60
2018-03-03T06:21:38.181Z,-4.60
2018-03-03T06:24:05.608Z,-4.40
2018-03-03T06:26:33.052Z,-4.40
2018-03-03T06:29:00.499Z,-4.30
2018-03-03T06:31:27.944Z,-4.40
2018-03-03T06:33:55.392Z,-4.40
2018-03-03T06:36:22.824Z,-4.40
2018-03-03T06:38:50.264Z,-4.30
2018-03-03T06:41:17.706Z,-4.20
2018-03-03T06:43:45.141Z,-4.30
2018-03-03T06:46:12.595Z,-4.30
2018-03-03T06:48:40.025Z,-4.30
2018-03-03T06:51:07.469Z,-4.30
2018-03-03T06:53:34.898Z,-4.30
2018-03-03T06:56:02.339Z,-4.30
2018-03-03T06:58:29.784Z,-4.30
2018-03-03T07:00:57.216Z,-4.30
2018-03-03T07:03:24.643Z,-4.20
2018-03-03T07:05:52.090Z,-4.20
2018-03-03T07:08:19.545Z,-4.20
2018-03-03T07:10:46.968Z,-4.10
2018-03-03T07:13:14.419Z,-4.00
2018-03-03T07:15:41.884Z,-4.00
2018-03-03T07:18:09.336Z,-3.90
2018-03-03T07:20:36.778Z,-3.90
2018-03-03T07:23:04.228Z,-3.80
2018-03-03T07:25:31.682Z,-3.80
2018-03-03T07:27:59.122Z,-3.70
2018-03-03T07:30:26.564Z,-3.60
2018-03-03T07:32:53.995Z,-3.50
2018-03-03T07:35:21.440Z,-3.40
2018-03-03T07:37:48.872Z,-3.20
2018-03-03T07:40:16.327Z,-3.20
2018-03-03T07:42:43.767Z,-3.10
2018-03-03T07:45:11.996Z,-2.70
2018-03-03T07:47:39.428Z,-2.70
2018-03-03T07:50:06.872Z,-2.50
2018-03-03T07:52:34.336Z,-2.30
2018-03-03T07:55:01.776Z,-2.20
2018-03-03T07:57:29.949Z,-1.90
2018-03-03T07:59:57.386Z,-1.70
2018-03-03T08:02:24.833Z,-1.50
2018-03-03T08:04:52.279Z,-1.30
2018-03-03T08:07:19.703Z,-1.20
2018-03-03T08:09:47.150Z,-1.10
2018-03-03T08:12:14.579Z,-1.00
2018-03-03T08:14:42.017Z,-1.00
2018-03-03T08:17:09.499Z,-0.90
2018-03-03T08:19:36.927Z,-0.90
2018-03-03T08:22:04.375Z,-1.00
2018-03-03T08:24:31.804Z,-0.90
2018-03-03T08:26:59.239Z,-1.00
2018-03-03T08:29:26.680Z,-0.90
2018-03-03T08:31:54.889Z,-1.00
2018-03-03T08:34:23.084Z,-1.00
2018-03-03T08:36:50.519Z,-1.00
2018-03-03T08:39:17.970Z,-0.90
2018-03-03T08:41:45.381Z,-0.80
2018-03-03T08:44:12.845Z,-0.80
2018-03-03T08:46:40.283Z,-0.80
2018-03-03T08:49:07.743Z,-0.70
2018-03-03T08:51:35.201Z,-0.60
2018-03-03T08:54:02.635Z,-0.60
2018-03-03T08:56:30.064Z,-0.50
2018-03-03T08:58:57.496Z,-0.30
2018-03-03T09:01:24.943Z,-0.10
2018-03-03T09:03:52.360Z,-0.10
2018-03-03T09:06:19.800Z,0.00
2018-03-03T09:08:47.233Z,0.00
2018-03-03T09:11:15.427Z,0.00
2018-03-03T09:13:42.864Z,0.00
2018-03-03T09:16:10.312Z,-0.10
2018-03-03T09:18:37.756Z,-0.20
2018-03-03T09:21:05.193Z,-0.10
2018-03-03T09:23:32.668Z,-0.10
2018-03-03T09:26:00.106Z,-0.10
2018-03-03T09:28:27.524Z,-0.10
2018-03-03T09:30:54.964Z,0.00
2018-03-03T09:33:22.798Z,0.20
2018-03-03T09:35:50.238Z,0.30
2018-03-03T09:38:17.679Z,0.50
2018-03-03T09:40:45.105Z,0.50
2018-03-03T09:43:12.549Z,0.50
2018-03-03T09:45:39.977Z,0.50
2018-03-03T09:48:08.183Z,0.80
2018-03-03T09:50:35.622Z,0.80
2018-03-03T09:53:03.036Z,1.10
2018-03-03T09:55:30.483Z,1.10
2018-03-03T09:57:57.900Z,1.30
2018-03-03T10:00:26.108Z,1.70
2018-03-03T10:02:53.552Z,1.70
2018-03-03T10:05:20.990Z,1.60
2018-03-03T10:07:48.416Z,1.70
2018-03-03T10:10:15.845Z,1.90
2018-03-03T10:12:43.268Z,2.00
2018-03-03T10:15:11.473Z,2.40
2018-03-03T10:17:38.918Z,2.40
2018-03-03T10:20:06.371Z,2.40
2018-03-03T10:22:33.787Z,2.60
2018-03-03T10:25:01.276Z,2.80
2018-03-03T10:27:28.684Z,3.10
2018-03-03T10:29:56.111Z,3.10
2018-03-03T10:32:23.548Z,3.20
2018-03-03T10:34:50.968Z,3.30
2018-03-03T10:37:19.160Z,3.70
2018-03-03T10:39:46.612Z,3.70
2018-03-03T10:42:14.012Z,3.80
2018-03-03T10:44:42.204Z,4.00
2018-03-03T10:47:09.632Z,3.90
2018-03-03T10:49:37.102Z,4.00
2018-03-03T10:52:04.501Z,4.10
2018-03-03T10:54:31.935Z,4.20
2018-03-03T10:56:59.363Z,4.20
2018-03-03T10:59:27.564Z,4.40
2018-03-03T11:01:55.014Z,4.40
2018-03-03T11:04:22.436Z,4.50
2018-03-03T11:06:49.865Z,4.60
2018-03-03T11:09:17.300Z,4.80
2018-03-03T11:11:45.508Z,5.10
2018-03-03T11:14:12.954Z,5.00
2018-03-03T11:16:40.364Z,5.30
2018-03-03T11:19:07.788Z,5.70
2018-03-03T11:21:35.212Z,6.40
2018-03-03T11:24:03.421Z,7.10
2018-03-03T11:26:30.844Z,7.10
2018-03-03T11:28:58.308Z,7.70
2018-03-03T11:31:25.741Z,8.30
2018-03-03T11:33:53.161Z,9.00
2018-03-03T11:36:20.599Z,9.70
2018-03-03T11:38:48.020Z,9.00
2018-03-03T11:41:16.220Z,9.20
2018-03-03T11:43:43.688Z,9.20
2018-03-03T11:46:11.114Z,10.10
2018-03-03T11:48:38.553Z,10.90
2018-03-03T11:51:05.980Z,11.40
2018-03-03T11:53:33.403Z,11.50
2018-03-03T11:56:00.842Z,11.60
2018-03-03T11:58:29.028Z,12.10
2018-03-03T12:00:56.479Z,12.10
2018-03-03T12:03:23.917Z,12.20
2018-03-03T12:05:51.352Z,12.40
2018-03-03T12:08:18.800Z,12.30
2018-03-03T12:10:46.233Z,12.60
2018-03-03T12:13:13.676Z,13.00
2018-03-03T12:15:41.104Z,13.20
2018-03-03T12:18:08.540Z,13.10
2018-03-03T12:20:36.012Z,12.80
2018-03-03T12:23:03.440Z,13.00
2018-03-03T12:25:30.899Z,13.80
2018-03-03T12:27:58.352Z,12.70
2018-03-03T12:30:25.776Z,12.80
2018-03-03T12:32:53.208Z,12.90
2018-03-03T12:35:20.643Z,13.50
2018-03-03T12:37:48.094Z,13.60
2018-03-03T12:40:15.546Z,13.80
2018-03-03T12:42:42.964Z,14.20
2018-03-03T12:45:10.388Z,14.50
2018-03-03T12:47:37.828Z,14.70
2018-03-03T12:50:06.008Z,14.90
2018-03-03T12:52:33.444Z,14.90
2018-03-03T12:55:00.908Z,15.20
2018-03-03T12:57:28.345Z,15.30
2018-03-03T12:59:55.760Z,15.00
2018-03-03T13:02:23.196Z,14.50
2018-03-03T13:04:50.628Z,15.20
2018-03-03T13:07:18.831Z,15.70
2018-03-03T13:09:46.280Z,15.70
2018-03-03T13:12:13.695Z,15.80
2018-03-03T13:14:41.173Z,15.90
2018-03-03T13:17:08.600Z,15.90
2018-03-03T13:19:36.330Z,15.90
2018-03-03T13:22:03.764Z,15.80
2018-03-03T13:24:31.224Z,15.90
2018-03-03T13:26:58.654Z,15.90
2018-03-03T13:29:26.092Z,16.20
2018-03-03T13:31:53.528Z,16.40
2018-03-03T13:34:20.979Z,16.50
2018-03-03T13:36:48.391Z,17.00
2018-03-03T13:39:16.616Z,17.10
2018-03-03T13:41:44.039Z,17.10
2018-03-03T13:44:11.484Z,16.30
2018-03-03T13:46:38.938Z,16.20
2018-03-03T13:49:06.387Z,15.80
2018-03-03T13:51:33.923Z,15.40
2018-03-03T13:54:01.367Z,15.20
2018-03-03T13:56:28.811Z,15.30
2018-03-03T13:58:56.245Z,15.20
2018-03-03T14:01:23.684Z,15.20
2018-03-03T14:03:51.128Z,15.20
2018-03-03T14:06:18.964Z,14.60
2018-03-03T14:08:46.384Z,14.70
2018-03-03T14:11:13.836Z,14.60
2018-03-03T14:13:41.275Z,14.20
2018-03-03T14:16:08.708Z,13.60
2018-03-03T14:18:36.132Z,13.30
2018-03-03T14:21:03.573Z,13.00
2018-03-03T14:23:31.760Z,12.30
2018-03-03T14:25:59.192Z,12.30
2018-03-03T14:28:26.625Z,12.20
2018-03-03T14:30:54.063Z,12.00
2018-03-03T14:33:21.520Z,12.00
2018-03-03T14:35:48.975Z,11.80
2018-03-03T14:38:16.428Z,11.70
2018-03-03T14:40:43.883Z,11.40
2018-03-03T14:43:11.311Z,11.10
2018-03-03T14:45:38.755Z,10.70
2018-03-03T14:48:06.196Z,10.60
2018-03-03T14:50:33.615Z,10.50
2018-03-03T14:53:01.052Z,10.50
2018-03-03T14:55:28.512Z,10.50
2018-03-03T14:57:55.944Z,10.30
2018-03-03T15:00:23.389Z,10.20
2018-03-03T15:02:50.840Z,10.10
2018-03-03T15:05:18.279Z,10.00
2018-03-03T15:07:45.711Z,10.00
2018-03-03T15:10:13.140Z,10.00
2018-03-03T15:12:40.589Z,10.00
2018-03-03T15:15:08.058Z,9.90
2018-03-03T15:17:35.467Z,10.00
2018-03-03T15:20:02.899Z,9.90
2018-03-03T15:22:30.312Z,9.80
2018-03-03T15:24:58.525Z,9.70
2018-03-03T15:27:25.956Z,9.70
2018-03-03T15:29:53.380Z,9.60
2018-03-03T15:32:20.804Z,9.50
2018-03-03T15:34:49.004Z,9.30
2018-03-03T15:37:16.414Z,9.30
2018-03-03T15:39:43.840Z,9.30
2018-03-03T15:42:12.043Z,9.10
2018-03-03T15:44:39.456Z,9.10
2018-03-03T15:47:06.871Z,9.10
2018-03-03T15:49:35.080Z,9.00
2018-03-03T15:52:02.488Z,9.00
2018-03-03T15:54:30.680Z,8.80
2018-03-03T15:56:58.145Z,8.80
2018-03-03T15:59:25.559Z,8.70
2018-03-03T16:01:52.979Z,8.60
2018-03-03T16:04:20.433Z,8.60
2018-03-03T16:06:47.863Z,8.50
2018-03-03T16:09:16.047Z,8.50
2018-03-03T16:11:43.475Z,8.50
2018-03-03T16:14:10.909Z,8.40
2018-03-03T16:16:38.327Z,8.30
2018-03-03T16:19:06.526Z,8.00
2018-03-03T16:21:33.952Z,8.00
2018-03-03T16:24:01.428Z,7.80
2018-03-03T16:26:28.870Z,7.70
2018-03-03T16:28:56.275Z,7.70
2018-03-03T16:31:23.746Z,7.60
2018-03-03T16:33:51.128Z,7.50
2018-03-03T16:36:18.564Z,7.40
2018-03-03T16:38:45.990Z,7.50
2018-03-03T16:41:13.420Z,7.40
2018-03-03T16:43:40.861Z,7.20
2018-03-03T16:46:08.280Z,7.20
2018-03-03T16:48:35.720Z,7.10
2018-03-03T16:51:03.203Z,7.10
2018-03-03T16:53:30.629Z,7.10
2018-03-03T16:55:58.076Z,7.10
2018-03-03T16:58:25.496Z,7.00
2018-03-03T17:00:52.932Z,6.90
2018-03-03T17:03:20.371Z,6.80
2018-03-03T17:05:47.831Z,6.70
2018-03-03T17:08:15.253Z,6.70
2018-03-03T17:10:42.679Z,6.60
2018-03-03T17:13:10.880Z,6.60
2018-03-03T17:15:38.288Z,6.60
2018-03-03T17:18:05.722Z,6.60
2018-03-03T17:20:33.140Z,6.50
2018-03-03T17:23:01.336Z,6.30
2018-03-03T17:25:28.797Z,6.30
2018-03-03T17:27:56.229Z,6.10
2018-03-03T17:30:23.656Z,5.90
2018-03-03T17:32:51.100Z,5.70
2018-03-03T17:35:18.521Z,5.60
2018-03-03T17:37:46.711Z,5.50
2018-03-03T17:40:14.123Z,5.50
2018-03-03T17:42:41.563Z,5.40
2018-03-03T17:45:09.756Z,5.40
2018-03-03T17:47:37.188Z,5.40
2018-03-03T17:50:04.609Z,5.40
2018-03-03T17:52:32.033Z,5.30
2018-03-03T17:55:00.215Z,5.30
2018-03-03T17:57:27.652Z,5.30
2018-03-03T17:59:55.072Z,5.30
2018-03-03T18:02:23.264Z,5.30
2018-03-03T18:04:50.703Z,5.20
2018-03-03T18:07:18.147Z,5.20
2018-03-03T18:09:45.580Z,5.20
2018-03-03T18:12:13.000Z,5.20
2018-03-03T18:14:41.192Z,5.10
2018-03-03T18:17:08.620Z,5.10
2018-03-03T18:19:36.044Z,5.10
2018-03-03T18:22:04.236Z,5.10
2018-03-03T18:24:36.582Z,5.10
2018-03-03T18:27:03.997Z,5.10
2018-03-03T18:29:32.208Z,5.10
2018-03-03T18:31:59.631Z,5.00
2018-03-03T18:34:27.052Z,5.00
2018-03-03T18:36:54.472Z,5.00
2018-03-03T18:39:22.722Z,5.00
2018-03-03T18:41:50.087Z,5.00
2018-03-03T18:44:18.287Z,4.90
2018-03-03T18:46:45.716Z,4.80
2018-03-03T18:49:13.193Z,4.80
2018-03-03T18:51:40.619Z,4.80
2018-03-03T18:54:08.060Z,4.80
2018-03-03T18:56:35.500Z,4.80
2018-03-03T18:59:02.922Z,4.80
2018-03-03T19:01:30.365Z,4.70
2018-03-03T19:03:57.840Z,4.70
2018-03-03T19:06:25.274Z,4.60
2018-03-03T19:08:52.700Z,4.60
2018-03-03T19:11:20.128Z,4.60
2018-03-03T19:13:47.558Z,4.50
2018-03-03T19:16:14.979Z,4.50
2018-03-03T19:18:42.393Z,4.50
2018-03-03T19:21:09.825Z,4.40
2018-03-03T19:23:37.232Z,4.40
2018-03-03T19:26:04.657Z,4.30
2018-03-03T19:28:32.848Z,4.30
2018-03-03T19:31:00.273Z,4.30
2018-03-03T19:33:27.699Z,4.30
2018-03-03T19:35:55.146Z,4.40
2018-03-03T19:38:23.320Z,4.40
2018-03-03T19:40:50.757Z,4.40
2018-03-03T19:43:18.172Z,4.40
2018-03-03T19:45:46.364Z,4.40
2018-03-03T19:48:13.789Z,4.40
2018-03-03T19:50:41.208Z,4.30
2018-03-03T19:53:09.392Z,4.30
2018-03-03T19:55:36.860Z,4.20
2018-03-03T19:58:04.307Z,4.20
2018-03-03T20:00:31.742Z,4.20
2018-03-03T20:02:59.144Z,4.10
2018-03-03T20:05:27.372Z,4.00
2018-03-03T20:07:55.040Z,4.00
2018-03-03T20:10:23.242Z,3.90
2018-03-03T20:12:50.684Z,3.80
2018-03-03T20:15:18.104Z,3.80
2018-03-03T20:17:45.524Z,3.70
2018-03-03T20:20:13.725Z,3.70
2018-03-03T20:22:41.144Z,3.60
2018-03-03T20:25:08.572Z,3.60
2018-03-03T20:27:36.788Z,3.60
2018-03-03T20:30:04.216Z,3.60
2018-03-03T20:32:31.652Z,3.60
2018-03-03T20:34:59.086Z,3.50
2018-03-03T20:37:26.508Z,3.50
2018-03-03T20:39:53.938Z,3.50
2018-03-03T20:42:22.160Z,3.50
2018-03-03T20:44:49.595Z,3.50
2018-03-03T20:47:17.801Z,3.50
2018-03-03T20:49:46.012Z,3.40
2018-03-03T20:52:13.431Z,3.40
2018-03-03T20:54:40.852Z,3.40
2018-03-03T20:57:08.293Z,3.40
2018-03-03T20:59:36.469Z,3.40
2018-03-03T21:02:03.897Z,3.40
2018-03-03T21:04:31.324Z,3.40
2018-03-03T21:06:59.514Z,3.50
2018-03-03T21:09:26.937Z,3.50
2018-03-03T21:12:05.079Z,3.60
2018-03-03T21:14:32.496Z,3.60
2018-03-03T21:16:59.915Z,3.50
2018-03-03T21:19:27.347Z,3.50
2018-03-03T21:21:55.550Z,3.50
2018-03-03T21:24:22.988Z,3.50
2018-03-03T21:26:50.420Z,3.40
2018-03-03T21:29:17.868Z,3.40
2018-03-03T21:31:45.308Z,3.30
2018-03-03T21:34:12.732Z,3.30
2018-03-03T21:36:40.156Z,3.30
2018-03-03T21:39:07.578Z,3.20
2018-03-03T21:41:35.776Z,3.20
2018-03-03T21:44:03.204Z,3.10
2018-03-03T21:46:30.643Z,3.20
2018-03-03T21:48:58.856Z,3.10
2018-03-03T21:51:26.261Z,3.10
2018-03-03T21:53:53.728Z,3.10
2018-03-03T21:56:21.148Z,3.10
2018-03-03T21:58:48.587Z,3.10
2018-03-03T22:01:16.021Z,3.10
2018-03-03T22:03:43.457Z,3.10
2018-03-03T22:06:10.881Z,3.10
2018-03-03T22:08:39.088Z,3.10
2018-03-03T22:11:06.512Z,3.10
2018-03-03T22:13:33.977Z,3.10
2018-03-03T22:16:01.405Z,3.10
2018-03-03T22:18:28.823Z,3.10
2018-03-03T22:20:56.256Z,3.30
2018-03-03T22:23:23.676Z,3.40
2018-03-03T22:25:51.104Z,3.40
2018-03-03T22:28:18.545Z,3.60
2018-03-03T22:30:45.981Z,3.50
2018-03-03T22:33:13.404Z,3.50
2018-03-03T22:35:40.828Z,3.70
2018-03-03T22:38:08.252Z,3.70
2018-03-03T22:40:36.535Z,3.50
2018-03-03T22:43:03.972Z,3.30
2018-03-03T22:45:31.392Z,3.20
2018-03-03T22:47:58.812Z,3.10
2018-03-03T22:50:27.025Z,3.20
2018-03-03T22:52:54.464Z,3.20
2018-03-03T22:55:21.888Z,3.10
2018-03-03T22:57:49.331Z,3.10
2018-03-03T23:00:16.753Z,3.00
2018-03-03T23:02:44.957Z,2.90
2018-03-03T23:05:12.376Z,2.90
2018-03-03T23:07:39.795Z,2.90
2018-03-03T23:10:07.230Z,2.80
2018-03-03T23:12:35.428Z,2.80
2018-03-03T23:15:02.862Z,2.80
2018-03-03T23:17:30.288Z,2.80
2018-03-03T23:19:57.716Z,2.80
2018-03-03T23:22:25.901Z,2.80
2018-03-03T23:24:53.347Z,2.80
2018-03-03T23:27:20.768Z,2.80
2018-03-03T23:29:48.216Z,2.80
2018-03-03T23:32:15.651Z,2.80
2018-03-03T23:34:43.077Z,2.80
2018-03-03T23:37:11.284Z,2.80
2018-03-03T23:39:38.749Z,2.80
2018-03-03T23:42:06.184Z,2.80
2018-03-03T23:44:33.672Z,2.80
2018-03-03T23:47:01.865Z,2.70
2018-03-03T23:49:29.333Z,2.70
2018-03-03T23:51:56.797Z,2.80
2018-03-03T23:54:24.230Z,2.80
2018-03-03T23:56:51.664Z,2.80
2018-03-03T23:59:19.102Z,2.80
